sensor_id;sensor_type;location;lat;lon;timestamp;pressure;altitude;pressure_sealevel;temperature;humidity
42887;BME280;29032;56.028;92.904;2023-02-17T00:04:18;100894.03;;;-12.33;41.97
42887;BME280;29032;56.028;92.904;2023-02-17T00:09:21;100899.75;;;-12.34;41.77
42887;BME280;29032;56.028;92.904;2023-02-17T00:14:24;100871.50;;;-12.44;42.28
42887;BME280;29032;56.028;92.904;2023-02-17T00:19:26;100876.13;;;-12.45;42.54
42887;BME280;29032;56.028;92.904;2023-02-17T00:24:30;100878.31;;;-12.54;42.70
42887;BME280;29032;56.028;92.904;2023-02-17T00:29:33;100874.84;;;-12.54;42.50
42887;BME280;29032;56.028;92.904;2023-02-17T00:34:36;100882.97;;;-12.51;42.28
42887;BME280;29032;56.028;92.904;2023-02-17T00:39:39;100879.91;;;-12.49;42.93
42887;BME280;29032;56.028;92.904;2023-02-17T00:44:41;100879.66;;;-12.41;42.83
42887;BME280;29032;56.028;92.904;2023-02-17T00:49:44;100886.63;;;-12.40;42.75
42887;BME280;29032;56.028;92.904;2023-02-17T00:54:47;100886.75;;;-12.55;42.73
42887;BME280;29032;56.028;92.904;2023-02-17T00:59:49;100886.28;;;-12.84;43.49
42887;BME280;29032;56.028;92.904;2023-02-17T01:04:52;100892.66;;;-12.96;44.37
42887;BME280;29032;56.028;92.904;2023-02-17T01:09:56;100879.78;;;-13.06;44.95
42887;BME280;29032;56.028;92.904;2023-02-17T01:14:58;100877.28;;;-13.18;45.34
42887;BME280;29032;56.028;92.904;2023-02-17T01:20:01;100864.09;;;-13.23;44.93
42887;BME280;29032;56.028;92.904;2023-02-17T01:25:06;100865.84;;;-13.11;45.26
42887;BME280;29032;56.028;92.904;2023-02-17T01:30:09;100860.50;;;-13.08;45.33
42887;BME280;29032;56.028;92.904;2023-02-17T01:35:11;100847.44;;;-13.06;45.27
42887;BME280;29032;56.028;92.904;2023-02-17T01:40:16;100834.72;;;-13.09;44.99
42887;BME280;29032;56.028;92.904;2023-02-17T01:45:39;100842.13;;;-13.02;44.71
42887;BME280;29032;56.028;92.904;2023-02-17T01:50:45;100830.63;;;-12.99;45.19
42887;BME280;29032;56.028;92.904;2023-02-17T01:55:51;100823.75;;;-12.97;45.28
42887;BME280;29032;56.028;92.904;2023-02-17T02:00:58;100820.69;;;-12.95;44.79
42887;BME280;29032;56.028;92.904;2023-02-17T02:06:03;100809.44;;;-13.01;45.16
42887;BME280;29032;56.028;92.904;2023-02-17T02:11:09;100806.38;;;-12.99;45.45
42887;BME280;29032;56.028;92.904;2023-02-17T02:16:16;100801.72;;;-13.02;45.67
42887;BME280;29032;56.028;92.904;2023-02-17T02:22:02;100790.06;;;-13.10;45.39
42887;BME280;29032;56.028;92.904;2023-02-17T02:27:44;100784.84;;;-13.22;45.78
42887;BME280;29032;56.028;92.904;2023-02-17T02:32:57;100776.97;;;-13.34;46.44
42887;BME280;29032;56.028;92.904;2023-02-17T02:38:05;100777.94;;;-13.23;46.18
42887;BME280;29032;56.028;92.904;2023-02-17T02:43:11;100768.94;;;-13.08;46.48
42887;BME280;29032;56.028;92.904;2023-02-17T02:48:15;100771.72;;;-13.01;46.38
42887;BME280;29032;56.028;92.904;2023-02-17T02:58:52;100763.94;;;-12.83;47.16
42887;BME280;29032;56.028;92.904;2023-02-17T03:04:06;100756.28;;;-12.77;46.38
42887;BME280;29032;56.028;92.904;2023-02-17T03:09:11;100753.69;;;-12.70;47.06
42887;BME280;29032;56.028;92.904;2023-02-17T03:14:16;100731.09;;;-12.62;47.06
42887;BME280;29032;56.028;92.904;2023-02-17T03:19:22;100742.38;;;-12.53;47.10
42887;BME280;29032;56.028;92.904;2023-02-17T03:24:26;100744.47;;;-12.39;46.72
42887;BME280;29032;56.028;92.904;2023-02-17T03:29:28;100743.31;;;-12.38;46.99
42887;BME280;29032;56.028;92.904;2023-02-17T03:34:32;100729.25;;;-12.24;46.68
42887;BME280;29032;56.028;92.904;2023-02-17T03:39:35;100736.25;;;-12.16;47.03
42887;BME280;29032;56.028;92.904;2023-02-17T03:44:37;100737.94;;;-12.04;47.23
42887;BME280;29032;56.028;92.904;2023-02-17T03:49:40;100728.06;;;-11.86;46.89
42887;BME280;29032;56.028;92.904;2023-02-17T03:54:43;100739.44;;;-11.66;46.25
42887;BME280;29032;56.028;92.904;2023-02-17T03:59:45;100742.13;;;-11.66;46.45
42887;BME280;29032;56.028;92.904;2023-02-17T04:04:49;100738.66;;;-11.70;46.00
42887;BME280;29032;56.028;92.904;2023-02-17T04:09:51;100738.59;;;-11.74;46.85
42887;BME280;29032;56.028;92.904;2023-02-17T04:14:53;100744.03;;;-11.70;46.57
42887;BME280;29032;56.028;92.904;2023-02-17T04:19:57;100741.00;;;-11.65;47.00
42887;BME280;29032;56.028;92.904;2023-02-17T04:24:59;100726.75;;;-11.62;47.26
42887;BME280;29032;56.028;92.904;2023-02-17T04:30:01;100712.16;;;-11.54;47.18
42887;BME280;29032;56.028;92.904;2023-02-17T04:35:05;100716.03;;;-11.55;47.51
42887;BME280;29032;56.028;92.904;2023-02-17T04:40:08;100720.66;;;-11.52;47.32
42887;BME280;29032;56.028;92.904;2023-02-17T04:45:11;100725.34;;;-11.49;48.35
42887;BME280;29032;56.028;92.904;2023-02-17T04:50:16;100725.78;;;-11.40;47.51
42887;BME280;29032;56.028;92.904;2023-02-17T04:55:18;100702.25;;;-11.39;48.49
42887;BME280;29032;56.028;92.904;2023-02-17T05:00:21;100676.03;;;-11.39;47.84
42887;BME280;29032;56.028;92.904;2023-02-17T05:05:25;100678.78;;;-11.32;47.92
42887;BME280;29032;56.028;92.904;2023-02-17T05:10:27;100681.75;;;-11.44;48.12
42887;BME280;29032;56.028;92.904;2023-02-17T05:15:29;100652.78;;;-11.50;48.89
42887;BME280;29032;56.028;92.904;2023-02-17T05:20:33;100634.69;;;-11.43;49.08
42887;BME280;29032;56.028;92.904;2023-02-17T05:25:35;100619.31;;;-11.39;48.63
42887;BME280;29032;56.028;92.904;2023-02-17T05:30:37;100606.53;;;-11.45;49.63
42887;BME280;29032;56.028;92.904;2023-02-17T05:35:41;100598.81;;;-11.47;49.88
42887;BME280;29032;56.028;92.904;2023-02-17T05:40:43;100582.56;;;-11.54;50.05
42887;BME280;29032;56.028;92.904;2023-02-17T05:45:45;100566.38;;;-11.54;49.98
42887;BME280;29032;56.028;92.904;2023-02-17T05:50:48;100543.25;;;-11.44;49.31
42887;BME280;29032;56.028;92.904;2023-02-17T05:55:51;100517.75;;;-11.54;49.16
42887;BME280;29032;56.028;92.904;2023-02-17T06:00:53;100541.66;;;-11.56;49.03
42887;BME280;29032;56.028;92.904;2023-02-17T06:05:56;100542.84;;;-11.50;49.86
42887;BME280;29032;56.028;92.904;2023-02-17T06:10:58;100496.59;;;-11.45;49.29
42887;BME280;29032;56.028;92.904;2023-02-17T06:16:01;100497.78;;;-11.42;48.95
42887;BME280;29032;56.028;92.904;2023-02-17T06:21:04;100519.78;;;-11.30;48.34
42887;BME280;29032;56.028;92.904;2023-02-17T06:26:07;100527.91;;;-11.33;47.75
42887;BME280;29032;56.028;92.904;2023-02-17T06:31:09;100508.59;;;-11.35;48.21
42887;BME280;29032;56.028;92.904;2023-02-17T06:36:12;100477.28;;;-11.47;49.17
42887;BME280;29032;56.028;92.904;2023-02-17T06:41:15;100496.94;;;-11.50;49.89
42887;BME280;29032;56.028;92.904;2023-02-17T06:46:17;100491.56;;;-11.43;50.20
42887;BME280;29032;56.028;92.904;2023-02-17T06:51:20;100489.25;;;-11.48;49.36
42887;BME280;29032;56.028;92.904;2023-02-17T06:56:22;100480.75;;;-11.43;48.76
42887;BME280;29032;56.028;92.904;2023-02-17T07:01:25;100470.31;;;-11.55;48.86
42887;BME280;29032;56.028;92.904;2023-02-17T07:06:29;100477.63;;;-11.63;48.98
42887;BME280;29032;56.028;92.904;2023-02-17T07:11:31;100468.78;;;-11.53;49.41
42887;BME280;29032;56.028;92.904;2023-02-17T07:16:33;100452.22;;;-11.44;48.79
42887;BME280;29032;56.028;92.904;2023-02-17T07:21:37;100440.22;;;-11.50;48.92
42887;BME280;29032;56.028;92.904;2023-02-17T07:26:40;100427.47;;;-11.60;49.00
42887;BME280;29032;56.028;92.904;2023-02-17T07:31:42;100435.94;;;-11.65;49.14
42887;BME280;29032;56.028;92.904;2023-02-17T07:36:45;100425.91;;;-11.65;49.56
42887;BME280;29032;56.028;92.904;2023-02-17T07:41:48;100417.00;;;-11.72;49.67
42887;BME280;29032;56.028;92.904;2023-02-17T07:46:53;100420.13;;;-11.67;49.82
42887;BME280;29032;56.028;92.904;2023-02-17T07:51:56;100433.25;;;-11.62;51.45
42887;BME280;29032;56.028;92.904;2023-02-17T07:56:59;100426.75;;;-11.43;50.61
42887;BME280;29032;56.028;92.904;2023-02-17T08:02:01;100413.25;;;-11.43;51.28
42887;BME280;29032;56.028;92.904;2023-02-17T08:07:04;100415.22;;;-11.40;51.69
42887;BME280;29032;56.028;92.904;2023-02-17T08:12:09;100427.19;;;-11.34;51.95
42887;BME280;29032;56.028;92.904;2023-02-17T08:17:15;100415.63;;;-11.34;51.27
42887;BME280;29032;56.028;92.904;2023-02-17T08:22:19;100435.34;;;-11.19;51.25
42887;BME280;29032;56.028;92.904;2023-02-17T08:27:21;100431.47;;;-11.18;51.59
42887;BME280;29032;56.028;92.904;2023-02-17T08:32:23;100437.28;;;-11.13;51.38
42887;BME280;29032;56.028;92.904;2023-02-17T08:37:27;100429.19;;;-11.06;52.64
42887;BME280;29032;56.028;92.904;2023-02-17T08:42:31;100445.78;;;-11.04;53.00
42887;BME280;29032;56.028;92.904;2023-02-17T08:47:34;100430.72;;;-10.94;53.33
42887;BME280;29032;56.028;92.904;2023-02-17T08:52:37;100438.47;;;-10.96;54.18
42887;BME280;29032;56.028;92.904;2023-02-17T08:57:39;100429.59;;;-10.93;54.60
42887;BME280;29032;56.028;92.904;2023-02-17T09:02:42;100430.75;;;-10.87;54.88
42887;BME280;29032;56.028;92.904;2023-02-17T09:07:45;100430.75;;;-10.73;55.37
42887;BME280;29032;56.028;92.904;2023-02-17T09:12:47;100414.53;;;-10.69;55.66
42887;BME280;29032;56.028;92.904;2023-02-17T09:17:50;100443.91;;;-10.53;54.90
42887;BME280;29032;56.028;92.904;2023-02-17T09:22:53;100431.56;;;-10.44;55.33
42887;BME280;29032;56.028;92.904;2023-02-17T09:27:56;100443.53;;;-10.41;56.04
42887;BME280;29032;56.028;92.904;2023-02-17T09:32:58;100442.72;;;-10.31;54.70
42887;BME280;29032;56.028;92.904;2023-02-17T09:38:02;100447.00;;;-10.23;54.51
42887;BME280;29032;56.028;92.904;2023-02-17T09:43:07;100446.59;;;-10.25;54.62
42887;BME280;29032;56.028;92.904;2023-02-17T09:48:15;100433.06;;;-10.18;54.33
42887;BME280;29032;56.028;92.904;2023-02-17T09:53:25;100445.41;;;-10.09;53.60
42887;BME280;29032;56.028;92.904;2023-02-17T09:58:34;100440.00;;;-10.09;53.56
42887;BME280;29032;56.028;92.904;2023-02-17T10:03:39;100459.72;;;-10.12;53.85
42887;BME280;29032;56.028;92.904;2023-02-17T10:08:48;100441.56;;;-10.16;53.78
42887;BME280;29032;56.028;92.904;2023-02-17T10:13:57;100453.16;;;-10.15;54.21
42887;BME280;29032;56.028;92.904;2023-02-17T10:19:07;100455.47;;;-10.06;54.04
42887;BME280;29032;56.028;92.904;2023-02-17T10:24:13;100465.50;;;-9.96;53.95
42887;BME280;29032;56.028;92.904;2023-02-17T10:29:29;100464.72;;;-9.86;53.23
42887;BME280;29032;56.028;92.904;2023-02-17T10:34:35;100464.72;;;-9.86;53.51
42887;BME280;29032;56.028;92.904;2023-02-17T10:39:46;100473.19;;;-9.73;54.23
42887;BME280;29032;56.028;92.904;2023-02-17T10:44:49;100479.00;;;-9.78;53.94
42887;BME280;29032;56.028;92.904;2023-02-17T10:49:52;100486.72;;;-9.77;54.28
42887;BME280;29032;56.028;92.904;2023-02-17T10:55:00;100481.66;;;-9.68;53.99
42887;BME280;29032;56.028;92.904;2023-02-17T11:00:13;100483.97;;;-9.55;53.08
42887;BME280;29032;56.028;92.904;2023-02-17T11:05:24;100488.59;;;-9.45;53.37
42887;BME280;29032;56.028;92.904;2023-02-17T11:10:30;100487.03;;;-9.46;53.19
42887;BME280;29032;56.028;92.904;2023-02-17T11:15:36;100495.19;;;-9.50;53.48
42887;BME280;29032;56.028;92.904;2023-02-17T11:20:44;100501.75;;;-9.44;53.24
42887;BME280;29032;56.028;92.904;2023-02-17T11:25:57;100523.00;;;-9.35;52.98
42887;BME280;29032;56.028;92.904;2023-02-17T11:30:59;100507.50;;;-9.35;53.14
42887;BME280;29032;56.028;92.904;2023-02-17T11:36:03;100509.44;;;-9.39;53.88
42887;BME280;29032;56.028;92.904;2023-02-17T11:41:07;100512.16;;;-9.39;54.11
42887;BME280;29032;56.028;92.904;2023-02-17T11:46:21;100502.47;;;-9.33;53.48
42887;BME280;29032;56.028;92.904;2023-02-17T11:51:31;100514.06;;;-9.32;53.06
42887;BME280;29032;56.028;92.904;2023-02-17T11:56:40;100515.59;;;-9.24;52.63
42887;BME280;29032;56.028;92.904;2023-02-17T12:01:55;100517.88;;;-9.12;52.29
42887;BME280;29032;56.028;92.904;2023-02-17T12:07:30;100531.00;;;-9.07;52.03
42887;BME280;29032;56.028;92.904;2023-02-17T12:12:50;100542.59;;;-8.99;51.33
42887;BME280;29032;56.028;92.904;2023-02-17T12:18:04;100538.72;;;-8.94;50.49
42887;BME280;29032;56.028;92.904;2023-02-17T12:23:26;100549.94;;;-8.92;50.62
42887;BME280;29032;56.028;92.904;2023-02-17T12:28:59;100567.78;;;-8.98;50.11
42887;BME280;29032;56.028;92.904;2023-02-17T12:34:13;100581.69;;;-8.96;49.74
42887;BME280;29032;56.028;92.904;2023-02-17T12:39:21;100585.59;;;-8.97;49.95
42887;BME280;29032;56.028;92.904;2023-02-17T12:44:29;100578.59;;;-8.91;49.97
42887;BME280;29032;56.028;92.904;2023-02-17T12:49:36;100590.59;;;-8.89;49.84
42887;BME280;29032;56.028;92.904;2023-02-17T12:54:45;100580.91;;;-8.86;50.16
42887;BME280;29032;56.028;92.904;2023-02-17T12:59:52;100588.25;;;-8.90;49.68
42887;BME280;29032;56.028;92.904;2023-02-17T13:04:57;100590.94;;;-8.83;49.34
42887;BME280;29032;56.028;92.904;2023-02-17T13:10:03;100582.44;;;-8.82;49.49
42887;BME280;29032;56.028;92.904;2023-02-17T13:15:26;100580.47;;;-8.74;48.83
42887;BME280;29032;56.028;92.904;2023-02-17T13:20:53;100583.53;;;-8.72;48.90
42887;BME280;29032;56.028;92.904;2023-02-17T13:31:47;100579.34;;;-8.87;49.03
42887;BME280;29032;56.028;92.904;2023-02-17T13:36:49;100617.69;;;-8.85;49.05
42887;BME280;29032;56.028;92.904;2023-02-17T13:41:54;100604.50;;;-8.80;48.72
42887;BME280;29032;56.028;92.904;2023-02-17T13:46:59;100607.59;;;-8.78;48.71
42887;BME280;29032;56.028;92.904;2023-02-17T13:52:17;100604.09;;;-8.74;48.35
42887;BME280;29032;56.028;92.904;2023-02-17T13:57:26;100602.19;;;-8.81;48.88
42887;BME280;29032;56.028;92.904;2023-02-17T14:02:30;100607.66;;;-8.88;48.79
42887;BME280;29032;56.028;92.904;2023-02-17T14:07:33;100608.38;;;-8.84;48.49
42887;BME280;29032;56.028;92.904;2023-02-17T14:12:36;100606.44;;;-8.84;48.99
42887;BME280;29032;56.028;92.904;2023-02-17T14:17:39;100631.66;;;-8.87;48.92
42887;BME280;29032;56.028;92.904;2023-02-17T14:22:41;100634.75;;;-8.85;48.42
42887;BME280;29032;56.028;92.904;2023-02-17T14:27:45;100630.84;;;-8.80;48.75
42887;BME280;29032;56.028;92.904;2023-02-17T14:33:00;100636.25;;;-8.73;48.06
42887;BME280;29032;56.028;92.904;2023-02-17T14:38:18;100614.56;;;-8.77;48.27
42887;BME280;29032;56.028;92.904;2023-02-17T14:43:21;100629.34;;;-8.88;48.69
42887;BME280;29032;56.028;92.904;2023-02-17T14:48:25;100635.09;;;-8.79;48.17
42887;BME280;29032;56.028;92.904;2023-02-17T14:53:29;100628.13;;;-8.73;47.53
42887;BME280;29032;56.028;92.904;2023-02-17T14:58:32;100645.53;;;-8.70;47.40
42887;BME280;29032;56.028;92.904;2023-02-17T15:03:36;100633.53;;;-8.77;48.12
42887;BME280;29032;56.028;92.904;2023-02-17T15:08:38;100625.81;;;-8.74;47.84
42887;BME280;29032;56.028;92.904;2023-02-17T15:13:40;100621.56;;;-8.86;47.56
42887;BME280;29032;56.028;92.904;2023-02-17T15:18:44;100630.88;;;-8.87;47.71
42887;BME280;29032;56.028;92.904;2023-02-17T15:23:46;100628.53;;;-8.85;47.50
42887;BME280;29032;56.028;92.904;2023-02-17T15:28:49;100631.63;;;-8.83;47.35
42887;BME280;29032;56.028;92.904;2023-02-17T15:33:54;100638.59;;;-8.82;47.57
42887;BME280;29032;56.028;92.904;2023-02-17T15:38:57;100641.72;;;-8.87;47.23
42887;BME280;29032;56.028;92.904;2023-02-17T15:44:00;100641.31;;;-8.82;47.09
42887;BME280;29032;56.028;92.904;2023-02-17T15:49:04;100639.75;;;-8.76;47.13
42887;BME280;29032;56.028;92.904;2023-02-17T15:54:06;100642.06;;;-8.71;47.24
42887;BME280;29032;56.028;92.904;2023-02-17T15:59:13;100654.03;;;-8.65;46.91
42887;BME280;29032;56.028;92.904;2023-02-17T16:04:18;100664.13;;;-8.65;46.64
42887;BME280;29032;56.028;92.904;2023-02-17T16:09:20;100657.94;;;-8.66;46.74
42887;BME280;29032;56.028;92.904;2023-02-17T16:14:24;100670.69;;;-8.63;46.90
42887;BME280;29032;56.028;92.904;2023-02-17T16:19:30;100656.78;;;-8.72;47.43
42887;BME280;29032;56.028;92.904;2023-02-17T16:24:33;100665.31;;;-8.73;47.34
42887;BME280;29032;56.028;92.904;2023-02-17T16:29:35;100681.19;;;-8.76;47.17
42887;BME280;29032;56.028;92.904;2023-02-17T16:34:39;100672.69;;;-8.78;47.11
42887;BME280;29032;56.028;92.904;2023-02-17T16:39:41;100690.91;;;-8.78;47.38
42887;BME280;29032;56.028;92.904;2023-02-17T16:44:44;100685.81;;;-8.69;47.12
42887;BME280;29032;56.028;92.904;2023-02-17T16:49:48;100695.16;;;-8.77;47.21
42887;BME280;29032;56.028;92.904;2023-02-17T16:54:50;100709.09;;;-8.75;47.31
42887;BME280;29032;56.028;92.904;2023-02-17T16:59:52;100687.38;;;-8.75;47.89
42887;BME280;29032;56.028;92.904;2023-02-17T17:04:56;100698.63;;;-8.73;48.46
42887;BME280;29032;56.028;92.904;2023-02-17T17:09:58;100709.50;;;-8.73;48.17
42887;BME280;29032;56.028;92.904;2023-02-17T17:15:00;100708.31;;;-8.72;48.64
42887;BME280;29032;56.028;92.904;2023-02-17T17:20:04;100718.00;;;-8.71;48.98
42887;BME280;29032;56.028;92.904;2023-02-17T17:25:07;100727.72;;;-8.73;49.76
42887;BME280;29032;56.028;92.904;2023-02-17T17:30:15;100728.06;;;-8.75;49.70
42887;BME280;29032;56.028;92.904;2023-02-17T17:35:19;100742.81;;;-8.83;50.31
42887;BME280;29032;56.028;92.904;2023-02-17T17:40:24;100747.06;;;-8.82;51.72
42887;BME280;29032;56.028;92.904;2023-02-17T17:45:26;100742.44;;;-8.78;51.35
42887;BME280;29032;56.028;92.904;2023-02-17T17:50:30;100759.84;;;-8.72;50.97
42887;BME280;29032;56.028;92.904;2023-02-17T17:55:32;100766.44;;;-8.69;50.59
42887;BME280;29032;56.028;92.904;2023-02-17T18:00:34;100768.75;;;-8.68;50.50
42887;BME280;29032;56.028;92.904;2023-02-17T18:05:38;100761.41;;;-8.60;49.41
42887;BME280;29032;56.028;92.904;2023-02-17T18:10:41;100781.56;;;-8.65;48.67
42887;BME280;29032;56.028;92.904;2023-02-17T18:15:43;100768.75;;;-8.75;49.57
42887;BME280;29032;56.028;92.904;2023-02-17T18:20:47;100778.06;;;-8.72;50.03
42887;BME280;29032;56.028;92.904;2023-02-17T18:25:50;100777.31;;;-8.73;50.03
42887;BME280;29032;56.028;92.904;2023-02-17T18:30:52;100778.47;;;-8.67;50.60
42887;BME280;29032;56.028;92.904;2023-02-17T18:35:55;100777.66;;;-8.64;50.44
42887;BME280;29032;56.028;92.904;2023-02-17T18:40:57;100778.81;;;-8.68;50.20
42887;BME280;29032;56.028;92.904;2023-02-17T18:45:59;100778.47;;;-8.67;49.91
42887;BME280;29032;56.028;92.904;2023-02-17T18:51:06;100782.34;;;-8.71;49.86
42887;BME280;29032;56.028;92.904;2023-02-17T18:56:09;100777.69;;;-8.78;49.47
42887;BME280;29032;56.028;92.904;2023-02-17T19:01:14;100778.47;;;-8.74;49.57
42887;BME280;29032;56.028;92.904;2023-02-17T19:06:21;100790.47;;;-8.75;49.55
42887;BME280;29032;56.028;92.904;2023-02-17T19:11:25;100775.78;;;-8.95;50.24
42887;BME280;29032;56.028;92.904;2023-02-17T19:16:28;100784.31;;;-8.93;50.71
42887;BME280;29032;56.028;92.904;2023-02-17T19:21:32;100785.84;;;-8.92;50.35
42887;BME280;29032;56.028;92.904;2023-02-17T19:26:35;100783.50;;;-8.97;50.53
42887;BME280;29032;56.028;92.904;2023-02-17T19:31:38;100781.19;;;-9.06;50.73
42887;BME280;29032;56.028;92.904;2023-02-17T19:36:41;100786.63;;;-9.10;51.52
42887;BME280;29032;56.028;92.904;2023-02-17T19:41:43;100795.16;;;-9.15;51.54
42887;BME280;29032;56.028;92.904;2023-02-17T19:46:46;100803.28;;;-9.18;51.63
42887;BME280;29032;56.028;92.904;2023-02-17T19:51:50;100804.44;;;-9.16;51.69
42887;BME280;29032;56.028;92.904;2023-02-17T19:56:52;100809.09;;;-9.20;51.16
42887;BME280;29032;56.028;92.904;2023-02-17T20:01:54;100812.94;;;-9.17;51.42
42887;BME280;29032;56.028;92.904;2023-02-17T20:06:58;100813.72;;;-9.20;50.88
42887;BME280;29032;56.028;92.904;2023-02-17T20:12:00;100811.41;;;-9.22;51.46
42887;BME280;29032;56.028;92.904;2023-02-17T20:17:02;100811.41;;;-9.29;51.65
42887;BME280;29032;56.028;92.904;2023-02-17T20:22:07;100824.59;;;-9.24;51.78
42887;BME280;29032;56.028;92.904;2023-02-17T20:27:10;100831.53;;;-9.30;51.44
42887;BME280;29032;56.028;92.904;2023-02-17T20:32:12;100828.03;;;-9.34;51.70
42887;BME280;29032;56.028;92.904;2023-02-17T20:37:15;100821.44;;;-9.40;52.05
42887;BME280;29032;56.028;92.904;2023-02-17T20:42:18;100831.88;;;-9.46;51.68
42887;BME280;29032;56.028;92.904;2023-02-17T20:47:20;100835.75;;;-9.47;51.84
42887;BME280;29032;56.028;92.904;2023-02-17T20:52:23;100841.19;;;-9.40;51.97
42887;BME280;29032;56.028;92.904;2023-02-17T20:57:26;100843.91;;;-9.36;51.87
42887;BME280;29032;56.028;92.904;2023-02-17T21:02:28;100841.59;;;-9.34;51.68
42887;BME280;29032;56.028;92.904;2023-02-17T21:07:32;100859.41;;;-9.33;51.81
42887;BME280;29032;56.028;92.904;2023-02-17T21:12:34;100849.34;;;-9.36;52.45
42887;BME280;29032;56.028;92.904;2023-02-17T21:17:36;100855.53;;;-9.32;52.71
42887;BME280;29032;56.028;92.904;2023-02-17T21:22:40;100859.41;;;-9.26;52.41
42887;BME280;29032;56.028;92.904;2023-02-17T21:27:43;100854.41;;;-9.24;52.40
42887;BME280;29032;56.028;92.904;2023-02-17T21:32:45;100863.69;;;-9.14;52.05
42887;BME280;29032;56.028;92.904;2023-02-17T21:37:49;100868.75;;;-9.09;51.90
42887;BME280;29032;56.028;92.904;2023-02-17T21:42:51;100863.31;;;-9.16;52.06
42887;BME280;29032;56.028;92.904;2023-02-17T21:47:53;100864.47;;;-9.21;53.05
42887;BME280;29032;56.028;92.904;2023-02-17T21:52:57;100877.25;;;-9.07;52.19
42887;BME280;29032;56.028;92.904;2023-02-17T21:57:59;100867.16;;;-9.10;52.86
42887;BME280;29032;56.028;92.904;2023-02-17T22:03:01;100874.16;;;-9.06;52.35
42887;BME280;29032;56.028;92.904;2023-02-17T22:08:05;100883.44;;;-9.10;52.55
42887;BME280;29032;56.028;92.904;2023-02-17T22:13:07;100875.69;;;-9.19;52.35
42887;BME280;29032;56.028;92.904;2023-02-17T22:18:09;100891.94;;;-9.19;52.86
42887;BME280;29032;56.028;92.904;2023-02-17T22:23:13;100896.22;;;-9.14;52.63
42887;BME280;29032;56.028;92.904;2023-02-17T22:28:15;100902.03;;;-9.23;52.16
42887;BME280;29032;56.028;92.904;2023-02-17T22:33:17;100908.97;;;-9.25;52.49
42887;BME280;29032;56.028;92.904;2023-02-17T22:38:21;100912.44;;;-9.25;52.79
42887;BME280;29032;56.028;92.904;2023-02-17T22:43:23;100914.41;;;-9.29;52.90
42887;BME280;29032;56.028;92.904;2023-02-17T22:48:26;100914.03;;;-9.24;52.51
42887;BME280;29032;56.028;92.904;2023-02-17T22:53:29;100927.97;;;-9.15;51.68
42887;BME280;29032;56.028;92.904;2023-02-17T22:58:32;100932.66;;;-9.08;52.21
42887;BME280;29032;56.028;92.904;2023-02-17T23:03:35;100925.66;;;-9.06;51.42
42887;BME280;29032;56.028;92.904;2023-02-17T23:08:39;100926.84;;;-9.07;51.46
42887;BME280;29032;56.028;92.904;2023-02-17T23:13:42;100933.81;;;-9.06;51.50
42887;BME280;29032;56.028;92.904;2023-02-17T23:18:44;100925.28;;;-9.08;51.25
42887;BME280;29032;56.028;92.904;2023-02-17T23:23:48;100931.47;;;-9.11;51.18
42887;BME280;29032;56.028;92.904;2023-02-17T23:28:50;100938.81;;;-9.15;51.58
42887;BME280;29032;56.028;92.904;2023-02-17T23:33:52;100934.13;;;-9.25;51.42
42887;BME280;29032;56.028;92.904;2023-02-17T23:38:57;100941.50;;;-9.25;51.96
42887;BME280;29032;56.028;92.904;2023-02-17T23:43:59;100945.41;;;-9.16;51.17
42887;BME280;29032;56.028;92.904;2023-02-17T23:49:01;100958.56;;;-9.11;50.67
42887;BME280;29032;56.028;92.904;2023-02-17T23:54:05;100948.13;;;-9.09;50.09
42887;BME280;29032;56.028;92.904;2023-02-17T23:59:07;100951.59;;;-9.12;49.78
